createdAt,value
2023-04-22T00:02:16.414Z,99919.36
2023-04-22T00:04:45.564Z,99920.31
2023-04-22T00:07:13.966Z,99915.38
2023-04-22T00:09:41.466Z,99911.39
2023-04-22T00:12:08.415Z,99912.36
2023-04-22T00:14:36.214Z,99909.92
2023-04-22T00:17:02.983Z,99911.92
2023-04-22T00:19:31.394Z,99908.92
2023-04-22T00:21:58.143Z,99907.29
2023-04-22T00:24:25.128Z,99905.05
2023-04-22T00:26:51.855Z,99907.95
2023-04-22T00:29:18.642Z,99912.98
2023-04-22T00:31:45.542Z,99909.75
2023-04-22T00:34:12.319Z,99907.77
2023-04-22T00:36:39.077Z,99905.48
2023-04-22T00:39:06.032Z,99901.77
2023-04-22T00:41:33.492Z,99900.88
2023-04-22T00:44:00.257Z,99900.16
2023-04-22T00:46:27.193Z,99899.04
2023-04-22T00:48:53.977Z,99903.31
2023-04-22T00:51:20.608Z,99899.34
2023-04-22T00:53:47.315Z,99897.77
2023-04-22T00:56:14.098Z,99897.50
2023-04-22T00:58:40.781Z,99897.43
2023-04-22T01:01:07.529Z,99902.62
2023-04-22T01:03:35.922Z,99906.95
2023-04-22T01:06:03.107Z,99912.34
2023-04-22T01:08:30.083Z,99918.20
2023-04-22T01:10:57.264Z,99915.33
2023-04-22T01:13:24.241Z,99912.41
2023-04-22T01:15:51.512Z,99913.05
2023-04-22T01:18:18.311Z,99916.13
2023-04-22T01:20:45.160Z,99915.60
2023-04-22T01:23:18.410Z,99917.02
2023-04-22T01:25:45.957Z,99917.48
2023-04-22T01:28:13.028Z,99917.23
2023-04-22T01:30:40.393Z,99918.38
2023-04-22T01:33:08.684Z,99918.00
2023-04-22T01:35:38.796Z,99918.04
2023-04-22T01:38:06.474Z,99916.10
2023-04-22T01:40:33.691Z,99916.77
2023-04-22T01:43:00.614Z,99916.80
2023-04-22T01:45:27.537Z,99916.98
2023-04-22T01:47:54.496Z,99915.22
2023-04-22T01:50:21.309Z,99920.10
2023-04-22T01:52:48.133Z,99915.73
2023-04-22T01:55:14.952Z,99910.47
2023-04-22T01:57:43.576Z,99915.09
2023-04-22T02:00:10.843Z,99918.76
2023-04-22T02:02:40.973Z,99920.92
2023-04-22T02:05:08.156Z,99924.39
2023-04-22T02:07:35.831Z,99924.91
2023-04-22T02:10:05.726Z,99927.71
2023-04-22T02:12:32.604Z,99928.36
2023-04-22T02:14:59.452Z,99929.06
2023-04-22T02:17:26.723Z,99928.41
2023-04-22T02:19:53.608Z,99929.31
2023-04-22T02:22:21.517Z,99929.64
2023-04-22T02:24:50.725Z,99931.13
2023-04-22T02:27:17.468Z,99932.31
2023-04-22T02:29:45.567Z,99925.69
2023-04-22T02:32:12.573Z,99927.35
2023-04-22T02:34:39.733Z,99931.12
2023-04-22T02:37:06.384Z,99932.48
2023-04-22T02:39:34.205Z,99929.41
2023-04-22T02:42:01.215Z,99928.63
2023-04-22T02:44:28.075Z,99930.81
2023-04-22T02:46:55.099Z,99933.20
2023-04-22T02:49:21.826Z,99932.41
2023-04-22T02:51:48.757Z,99935.73
2023-04-22T02:54:15.552Z,99935.49
2023-04-22T02:56:42.488Z,99936.80
2023-04-22T02:59:09.093Z,99937.67
2023-04-22T03:01:35.840Z,99937.13
2023-04-22T03:04:03.677Z,99941.70
2023-04-22T03:06:31.255Z,99939.69
2023-04-22T03:08:58.395Z,99942.34
2023-04-22T03:11:25.957Z,99944.08
2023-04-22T03:13:52.843Z,99947.88
2023-04-22T03:16:25.046Z,99950.38
2023-04-22T03:18:52.065Z,99948.98
2023-04-22T03:21:18.755Z,99950.80
2023-04-22T03:23:45.692Z,99952.10
2023-04-22T03:26:13.106Z,99956.95
2023-04-22T03:28:40.048Z,99957.45
2023-04-22T03:31:07.384Z,99957.05
2023-04-22T03:33:34.782Z,99961.66
2023-04-22T03:36:07.375Z,99968.19
2023-04-22T03:38:34.479Z,99970.26
2023-04-22T03:41:01.229Z,99969.42
2023-04-22T03:43:47.173Z,99974.32
2023-04-22T03:46:15.309Z,99972.90
2023-04-22T03:48:47.672Z,99974.60
2023-04-22T03:51:23.581Z,99975.20
2023-04-22T03:53:51.962Z,99978.03
2023-04-22T03:56:20.544Z,99981.73
2023-04-22T03:58:47.527Z,99985.08
2023-04-22T04:01:15.496Z,99989.79
2023-04-22T04:03:44.687Z,99992.52
2023-04-22T04:06:11.682Z,99996.75
2023-04-22T04:08:38.663Z,99999.56
2023-04-22T04:11:05.394Z,100004.33
2023-04-22T04:13:32.705Z,100005.30
2023-04-22T04:16:11.298Z,100007.06
2023-04-22T04:18:39.537Z,100010.28
2023-04-22T04:21:06.489Z,100019.08
2023-04-22T04:23:35.293Z,100020.07
2023-04-22T04:26:02.187Z,100020.55
2023-04-22T04:28:31.947Z,100024.02
2023-04-22T04:30:59.517Z,100022.56
2023-04-22T04:33:26.995Z,100021.46
2023-04-22T04:35:53.697Z,100017.90
2023-04-22T04:38:24.472Z,100021.42
2023-04-22T04:40:52.109Z,100022.24
2023-04-22T04:43:25.194Z,100023.10
2023-04-22T04:46:00.294Z,100023.92
2023-04-22T04:48:35.387Z,100027.60
2023-04-22T04:51:07.267Z,100024.09
2023-04-22T04:53:37.673Z,100020.01
2023-04-22T04:56:04.496Z,100023.15
2023-04-22T04:58:31.164Z,100021.70
2023-04-22T05:01:15.668Z,100029.34
2023-04-22T05:03:43.194Z,100029.33
2023-04-22T05:06:11.768Z,100024.22
2023-04-22T05:08:39.158Z,100023.58
2023-04-22T05:11:08.358Z,100029.02
2023-04-22T05:13:35.091Z,100030.46
2023-04-22T05:16:02.215Z,100027.23
2023-04-22T05:18:29.308Z,100028.95
2023-04-22T05:21:00.216Z,100031.23
2023-04-22T05:23:27.130Z,100032.96
2023-04-22T05:25:55.196Z,100030.66
2023-04-22T05:28:23.728Z,100031.36
2023-04-22T05:30:53.872Z,100035.42
2023-04-22T05:33:20.824Z,100040.35
2023-04-22T05:35:47.655Z,100039.83
2023-04-22T05:38:14.715Z,100044.07
2023-04-22T05:40:41.553Z,100042.76
2023-04-22T05:43:09.683Z,100046.81
2023-04-22T05:45:37.017Z,100048.27
2023-04-22T05:48:04.125Z,100050.81
2023-04-22T05:50:33.817Z,100049.65
2023-04-22T05:53:05.724Z,100046.39
2023-04-22T05:55:32.648Z,100049.68
2023-04-22T05:57:59.396Z,100051.86
2023-04-22T06:00:39.883Z,100050.89
2023-04-22T06:03:13.767Z,100053.51
2023-04-22T06:05:41.711Z,100054.70
2023-04-22T06:08:08.567Z,100050.70
2023-04-22T06:10:35.511Z,100049.81
2023-04-22T06:13:02.597Z,100053.34
2023-04-22T06:15:29.634Z,100055.08
2023-04-22T06:17:56.556Z,100054.70
2023-04-22T06:20:23.413Z,100055.25
2023-04-22T06:22:50.362Z,100053.74
2023-04-22T06:25:17.070Z,100050.70
2023-04-22T06:27:43.735Z,100052.70
2023-04-22T06:30:11.441Z,100053.16
2023-04-22T06:32:40.307Z,100054.63
2023-04-22T06:35:07.584Z,100057.23
2023-04-22T06:37:34.732Z,100060.65
2023-04-22T06:40:03.560Z,100061.22
2023-04-22T06:42:53.586Z,100060.21
2023-04-22T06:45:26.024Z,100060.77
2023-04-22T06:48:01.646Z,100062.89
2023-04-22T06:50:40.818Z,100061.35
2023-04-22T06:53:09.314Z,100063.27
2023-04-22T06:55:36.016Z,100063.69
2023-04-22T06:58:03.019Z,100066.75
2023-04-22T07:00:29.783Z,100065.05
2023-04-22T07:02:57.686Z,100063.09
2023-04-22T07:05:24.675Z,100067.08
2023-04-22T07:07:51.591Z,100070.54
2023-04-22T07:10:20.261Z,100066.35
2023-04-22T07:13:06.998Z,100065.00
2023-04-22T07:15:34.614Z,100068.34
2023-04-22T07:18:01.597Z,100070.67
2023-04-22T07:20:28.451Z,100077.03
2023-04-22T07:22:55.146Z,100077.45
2023-04-22T07:25:21.798Z,100080.02
2023-04-22T07:27:48.554Z,100084.77
2023-04-22T07:30:15.378Z,100082.77
2023-04-22T07:32:42.082Z,100081.30
2023-04-22T07:35:08.931Z,100083.60
2023-04-22T07:37:35.603Z,100088.66
2023-04-22T07:40:02.456Z,100089.20
2023-04-22T07:42:29.458Z,100094.83
2023-04-22T07:44:56.098Z,100095.91
2023-04-22T07:47:22.823Z,100099.70
2023-04-22T07:49:49.689Z,100101.23
2023-04-22T07:52:16.441Z,100106.65
2023-04-22T07:54:43.310Z,100109.13
2023-04-22T07:57:10.110Z,100111.05
2023-04-22T07:59:36.955Z,100109.77
2023-04-22T08:02:03.919Z,100111.66
2023-04-22T08:04:30.901Z,100113.05
2023-04-22T08:06:57.637Z,100110.97
2023-04-22T08:09:25.069Z,100106.48
2023-04-22T08:11:51.935Z,100107.58
2023-04-22T08:14:18.646Z,100109.36
2023-04-22T08:16:45.312Z,100109.11
2023-04-22T08:19:11.970Z,100114.34
2023-04-22T08:21:39.108Z,100111.26
2023-04-22T08:24:05.918Z,100116.55
2023-04-22T08:26:32.780Z,100116.27
2023-04-22T08:29:00.212Z,100111.95
2023-04-22T08:31:26.843Z,100118.98
2023-04-22T08:33:53.514Z,100117.51
2023-04-22T08:36:22.329Z,100114.41
2023-04-22T08:38:50.109Z,100112.23
2023-04-22T08:41:18.229Z,100114.39
2023-04-22T08:43:45.704Z,100116.84
2023-04-22T08:46:14.829Z,100118.60
2023-04-22T08:48:41.498Z,100117.48
2023-04-22T08:51:08.226Z,100114.92
2023-04-22T08:53:35.078Z,100115.13
2023-04-22T08:56:01.749Z,100117.45
2023-04-22T08:58:28.791Z,100118.05
2023-04-22T09:00:55.586Z,100121.41
2023-04-22T09:03:22.786Z,100122.02
2023-04-22T09:05:49.446Z,100123.89
2023-04-22T09:08:16.064Z,100125.84
2023-04-22T09:10:42.791Z,100122.40
2023-04-22T09:13:11.190Z,100125.00
2023-04-22T09:15:37.826Z,100122.44
2023-04-22T09:18:05.022Z,100121.27
2023-04-22T09:20:33.302Z,100121.93
2023-04-22T09:23:04.470Z,100122.20
2023-04-22T09:25:32.650Z,100123.29
2023-04-22T09:27:59.352Z,100121.65
2023-04-22T09:30:33.966Z,100122.45
2023-04-22T09:33:03.083Z,100121.58
2023-04-22T09:35:31.445Z,100118.63
2023-04-22T09:37:59.738Z,100119.58
2023-04-22T09:40:27.097Z,100118.35
2023-04-22T09:42:55.577Z,100116.66
2023-04-22T09:45:38.726Z,100115.70
2023-04-22T09:48:09.101Z,100116.45
2023-04-22T09:50:37.136Z,100114.66
2023-04-22T09:53:07.939Z,100118.59
2023-04-22T09:55:41.156Z,100115.68
2023-04-22T09:58:15.501Z,100118.86
2023-04-22T10:00:53.612Z,100113.54
2023-04-22T10:03:20.484Z,100113.64
2023-04-22T10:05:47.356Z,100115.38
2023-04-22T10:08:15.137Z,100114.58
2023-04-22T10:10:42.178Z,100111.43
2023-04-22T10:13:09.029Z,100108.59
2023-04-22T10:15:48.229Z,100112.92
2023-04-22T10:18:18.540Z,100113.67
2023-04-22T10:20:45.256Z,100113.23
2023-04-22T10:23:18.241Z,100116.01
2023-04-22T10:25:48.752Z,100114.33
2023-04-22T10:28:16.268Z,100118.76
2023-04-22T10:30:43.027Z,100117.04
2023-04-22T10:33:27.973Z,100115.24
2023-04-22T10:36:17.208Z,100112.95
2023-04-22T10:38:49.775Z,100112.33
2023-04-22T10:41:16.520Z,100113.00
2023-04-22T10:56:18.290Z,100111.95
2023-04-22T10:58:46.478Z,100114.27
2023-04-22T11:01:15.160Z,100115.27
2023-04-22T11:03:43.375Z,100116.77
2023-04-22T11:06:16.415Z,100120.31
2023-04-22T11:08:48.602Z,100120.21
2023-04-22T11:11:17.791Z,100122.47
2023-04-22T11:13:47.665Z,100123.81
2023-04-22T11:16:15.804Z,100121.82
2023-04-22T11:18:46.690Z,100127.10
2023-04-22T11:21:14.765Z,100129.10
2023-04-22T11:23:50.890Z,100128.02
2023-04-22T11:26:19.064Z,100128.25
2023-04-22T11:28:47.632Z,100127.05
2023-04-22T11:31:15.824Z,100133.96
2023-04-22T11:33:44.158Z,100133.13
2023-04-22T11:36:12.692Z,100133.98
2023-04-22T11:38:40.843Z,100136.41
2023-04-22T11:41:08.935Z,100135.58
2023-04-22T11:43:46.823Z,100133.16
2023-04-22T11:46:14.938Z,100131.98
2023-04-22T11:48:43.089Z,100139.64
2023-04-22T11:51:11.849Z,100143.76
2023-04-22T11:53:50.538Z,100145.48
2023-04-22T11:56:18.923Z,100144.77
2023-04-22T11:58:47.441Z,100145.76
2023-04-22T12:01:15.592Z,100147.02
2023-04-22T12:03:43.772Z,100146.83
2023-04-22T12:06:11.933Z,100145.01
2023-04-22T12:08:42.611Z,100146.13
2023-04-22T12:11:11.621Z,100143.57
2023-04-22T12:13:42.583Z,100142.57
2023-04-22T12:16:12.243Z,100141.75
2023-04-22T12:18:41.925Z,100138.31
2023-04-22T12:21:10.792Z,100139.66
2023-04-22T12:23:43.736Z,100140.06
2023-04-22T12:26:13.013Z,100136.48
2023-04-22T12:28:41.911Z,100137.27
2023-04-22T12:31:10.801Z,100136.85
2023-04-22T12:33:39.178Z,100133.13
2023-04-22T12:36:07.583Z,100133.21
2023-04-22T12:38:35.713Z,100133.15
2023-04-22T12:41:04.564Z,100131.90
2023-04-22T12:43:36.375Z,100136.35
2023-04-22T12:46:05.568Z,100134.67
2023-04-22T12:48:34.099Z,100135.95
2023-04-22T12:51:02.157Z,100135.77
2023-04-22T12:53:30.280Z,100137.50
2023-04-22T12:55:58.502Z,100137.16
2023-04-22T12:58:26.738Z,100139.00
2023-04-22T13:00:54.931Z,100139.95
2023-04-22T13:03:23.446Z,100137.48
2023-04-22T13:05:52.524Z,100135.45
2023-04-22T13:08:21.339Z,100136.30
2023-04-22T13:10:50.084Z,100136.12
2023-04-22T13:13:19.482Z,100135.41
2023-04-22T13:15:53.568Z,100133.86
2023-04-22T13:18:23.404Z,100134.30
2023-04-22T13:20:51.743Z,100138.42
2023-04-22T13:23:21.862Z,100132.54
2023-04-22T13:25:50.365Z,100132.02
2023-04-22T13:28:18.767Z,100131.95
2023-04-22T13:30:46.829Z,100133.30
2023-04-22T13:33:15.798Z,100132.80
2023-04-22T13:35:44.142Z,100132.49
2023-04-22T13:38:12.551Z,100132.66
2023-04-22T13:40:40.652Z,100134.17
2023-04-22T13:43:09.377Z,100135.05
2023-04-22T13:45:37.524Z,100133.53
2023-04-22T13:48:05.691Z,100131.55
2023-04-22T13:50:34.369Z,100133.86
2023-04-22T13:53:04.074Z,100136.42
2023-04-22T13:55:32.581Z,100130.71
2023-04-22T13:58:01.353Z,100133.38
2023-04-22T14:00:29.867Z,100131.69
2023-04-22T14:02:58.499Z,100132.51
2023-04-22T14:05:27.176Z,100137.31
2023-04-22T14:07:55.971Z,100136.34
2023-04-22T14:10:26.625Z,100137.52
2023-04-22T14:12:56.276Z,100143.77
2023-04-22T14:15:24.481Z,100145.09
2023-04-22T14:17:53.553Z,100141.98
2023-04-22T14:20:21.693Z,100147.30
2023-04-22T14:22:49.753Z,100142.21
2023-04-22T14:25:17.903Z,100142.80
2023-04-22T14:27:46.285Z,100142.64
2023-04-22T14:30:14.999Z,100142.43
2023-04-22T14:32:44.297Z,100140.11
2023-04-22T14:35:12.353Z,100139.96
2023-04-22T14:37:41.831Z,100144.42
2023-04-22T14:40:10.196Z,100143.91
2023-04-22T14:42:38.436Z,100141.69
2023-04-22T14:45:07.216Z,100143.41
2023-04-22T14:47:35.487Z,100146.02
2023-04-22T14:50:03.873Z,100145.38
2023-04-22T14:52:33.097Z,100148.59
2023-04-22T14:55:11.874Z,100151.06
2023-04-22T14:57:48.955Z,100150.55
2023-04-22T15:00:17.194Z,100149.52
2023-04-22T15:02:45.450Z,100151.40
2023-04-22T15:05:13.641Z,100149.67
2023-04-22T15:07:41.754Z,100156.06
2023-04-22T15:10:09.822Z,100156.73
2023-04-22T15:12:37.945Z,100159.29
2023-04-22T15:15:06.832Z,100162.06
2023-04-22T15:17:35.015Z,100164.27
2023-04-22T15:20:05.738Z,100161.96
2023-04-22T15:22:35.031Z,100157.58
2023-04-22T15:25:03.762Z,100160.30
2023-04-22T15:27:32.010Z,100161.51
2023-04-22T15:30:00.123Z,100164.61
2023-04-22T15:32:28.220Z,100160.88
2023-04-22T15:34:56.457Z,100161.66
2023-04-22T15:37:24.636Z,100166.15
2023-04-22T15:39:52.755Z,100167.34
2023-04-22T15:42:20.760Z,100166.52
2023-04-22T15:44:48.858Z,100164.58
2023-04-22T15:47:17.886Z,100170.71
2023-04-22T15:49:45.986Z,100169.05
2023-04-22T15:52:14.169Z,100169.48
2023-04-22T15:54:42.314Z,100173.74
2023-04-22T15:57:10.878Z,100170.77
2023-04-22T15:59:39.457Z,100170.03
2023-04-22T16:02:08.816Z,100172.39
2023-04-22T16:04:37.386Z,100174.91
2023-04-22T16:07:06.144Z,100174.48
2023-04-22T16:09:34.209Z,100174.56
2023-04-22T16:12:02.268Z,100175.73
2023-04-22T16:14:30.389Z,100176.83
2023-04-22T16:16:58.488Z,100179.76
2023-04-22T16:19:26.623Z,100184.45
2023-04-22T16:21:55.754Z,100187.41
2023-04-22T16:24:23.858Z,100186.17
2023-04-22T16:26:52.084Z,100189.83
2023-04-22T16:29:20.424Z,100189.79
2023-04-22T16:31:48.463Z,100194.16
2023-04-22T16:34:16.890Z,100198.00
2023-04-22T16:36:45.028Z,100192.91
2023-04-22T16:39:13.067Z,100192.10
2023-04-22T16:41:43.288Z,100195.55
2023-04-22T16:44:11.341Z,100199.64
2023-04-22T16:46:39.767Z,100200.05
2023-04-22T16:49:10.281Z,100203.90
2023-04-22T16:51:39.981Z,100206.30
2023-04-22T16:54:08.135Z,100206.08
2023-04-22T16:56:37.617Z,100206.63
2023-04-22T16:59:05.877Z,100212.77
2023-04-22T17:01:34.253Z,100214.39
2023-04-22T17:04:03.195Z,100213.66
2023-04-22T17:06:32.604Z,100213.22
2023-04-22T17:09:00.914Z,100219.28
2023-04-22T17:11:32.470Z,100221.40
2023-04-22T17:14:00.597Z,100222.80
2023-04-22T17:16:28.821Z,100231.80
2023-04-22T17:18:57.040Z,100234.00
2023-04-22T17:21:25.395Z,100236.12
2023-04-22T17:23:53.551Z,100236.02
2023-04-22T17:26:21.588Z,100238.86
2023-04-22T17:28:49.642Z,100242.48
2023-04-22T17:31:17.935Z,100246.49
2023-04-22T17:33:46.362Z,100247.83
2023-04-22T17:36:14.783Z,100252.67
2023-04-22T17:38:42.770Z,100258.85
2023-04-22T17:41:10.769Z,100259.67
2023-04-22T17:43:38.913Z,100264.70
2023-04-22T17:46:06.892Z,100267.38
2023-04-22T17:48:36.612Z,100269.30
2023-04-22T17:51:06.783Z,100270.56
2023-04-22T17:53:34.923Z,100276.88
2023-04-22T17:56:03.074Z,100278.75
2023-04-22T17:58:31.547Z,100285.48
2023-04-22T18:00:59.845Z,100289.25
2023-04-22T18:03:28.278Z,100285.33
2023-04-22T18:05:56.605Z,100288.15
2023-04-22T18:08:24.854Z,100292.31
2023-04-22T18:10:53.338Z,100292.30
2023-04-22T18:13:21.755Z,100295.24
2023-04-22T18:15:49.780Z,100296.61
2023-04-22T18:18:17.874Z,100295.19
2023-04-22T18:20:46.135Z,100298.86
2023-04-22T18:23:14.216Z,100302.91
2023-04-22T18:25:42.376Z,100304.42
2023-04-22T18:28:10.945Z,100305.96
2023-04-22T18:30:39.053Z,100310.14
2023-04-22T18:33:07.110Z,100315.61
2023-04-22T18:35:36.491Z,100313.52
2023-04-22T18:38:04.720Z,100312.99
2023-04-22T18:40:33.768Z,100314.59
2023-04-22T18:43:01.873Z,100311.84
2023-04-22T18:45:30.074Z,100312.09
2023-04-22T18:47:59.082Z,100316.61
2023-04-22T18:50:27.230Z,100321.38
2023-04-22T18:52:55.561Z,100320.86
2023-04-22T18:55:23.752Z,100319.08
2023-04-22T18:57:51.795Z,100319.79
2023-04-22T19:00:20.042Z,100318.70
2023-04-22T19:02:48.364Z,100325.25
2023-04-22T19:05:18.142Z,100327.75
2023-04-22T19:07:46.367Z,100328.27
2023-04-22T19:10:14.488Z,100331.95
2023-04-22T19:12:43.458Z,100330.03
2023-04-22T19:15:12.371Z,100327.69
2023-04-22T19:17:42.574Z,100327.53
2023-04-22T19:20:11.045Z,100330.91
2023-04-22T19:22:39.298Z,100333.20
2023-04-22T19:25:08.284Z,100335.84
2023-04-22T19:27:37.494Z,100336.89
2023-04-22T19:30:06.807Z,100339.95
2023-04-22T19:32:36.057Z,100340.71
2023-04-22T19:35:04.634Z,100343.72
2023-04-22T19:37:34.209Z,100344.13
2023-04-22T19:40:02.308Z,100344.69
2023-04-22T19:42:30.945Z,100346.82
2023-04-22T19:44:59.572Z,100353.66
2023-04-22T19:47:28.215Z,100352.29
2023-04-22T19:49:56.694Z,100350.27
2023-04-22T19:52:25.022Z,100350.00
2023-04-22T19:54:56.229Z,100350.57
2023-04-22T19:57:24.893Z,100350.01
2023-04-22T19:59:54.249Z,100350.69
2023-04-22T20:02:23.907Z,100351.69
2023-04-22T20:04:52.288Z,100356.09
2023-04-22T20:07:20.605Z,100355.73
2023-04-22T20:09:48.699Z,100354.46
2023-04-22T20:12:17.374Z,100355.66
2023-04-22T20:14:45.983Z,100358.14
2023-04-22T20:17:14.240Z,100359.47
2023-04-22T20:19:42.547Z,100360.55
2023-04-22T20:22:12.429Z,100361.02
2023-04-22T20:24:41.683Z,100365.48
2023-04-22T20:27:09.766Z,100364.98
2023-04-22T20:29:40.862Z,100365.55
2023-04-22T20:32:10.765Z,100364.46
2023-04-22T20:34:39.368Z,100367.80
2023-04-22T20:37:10.417Z,100369.52
2023-04-22T20:39:38.451Z,100367.98
2023-04-22T20:42:07.044Z,100368.88
2023-04-22T20:44:35.311Z,100365.70
2023-04-22T20:47:03.535Z,100366.61
2023-04-22T20:49:31.976Z,100369.72
2023-04-22T20:52:00.916Z,100372.30
2023-04-22T20:54:29.560Z,100372.48
2023-04-22T20:56:58.086Z,100374.77
2023-04-22T20:59:26.178Z,100376.89
2023-04-22T21:01:57.096Z,100376.42
2023-04-22T21:04:26.171Z,100372.39
2023-04-22T21:06:54.784Z,100372.88
2023-04-22T21:09:25.002Z,100368.88
2023-04-22T21:11:53.364Z,100369.78
2023-04-22T21:14:22.392Z,100370.92
2023-04-22T21:16:57.437Z,100375.54
2023-04-22T21:19:26.152Z,100373.92
2023-04-22T21:21:54.371Z,100375.06
2023-04-22T21:24:22.550Z,100376.16
2023-04-22T21:26:51.008Z,100379.60
2023-04-22T21:29:19.521Z,100380.80
2023-04-22T21:32:01.130Z,100381.66
2023-04-22T21:34:35.632Z,100381.97
2023-04-22T21:37:04.244Z,100382.13
2023-04-22T21:39:32.798Z,100378.59
2023-04-22T21:42:02.457Z,100379.46
2023-04-22T21:44:30.782Z,100381.70
2023-04-22T21:46:58.996Z,100380.91
2023-04-22T21:49:27.103Z,100378.02
2023-04-22T21:51:55.498Z,100379.45
2023-04-22T21:54:23.775Z,100382.06
2023-04-22T21:56:53.265Z,100384.30
2023-04-22T21:59:21.558Z,100385.41
2023-04-22T22:01:49.829Z,100390.10
2023-04-22T22:04:18.039Z,100389.29
2023-04-22T22:06:46.533Z,100389.59
2023-04-22T22:09:14.573Z,100392.78
2023-04-22T22:11:43.355Z,100389.27
2023-04-22T22:14:11.556Z,100392.08
2023-04-22T22:16:39.709Z,100392.68
2023-04-22T22:19:11.125Z,100390.27
2023-04-22T22:21:39.279Z,100388.37
2023-04-22T22:24:09.528Z,100390.13
2023-04-22T22:26:41.093Z,100388.61
2023-04-22T22:29:15.274Z,100388.64
2023-04-22T22:31:44.253Z,100388.94
2023-04-22T22:34:12.376Z,100385.76
2023-04-22T22:36:41.392Z,100388.24
2023-04-22T22:39:12.015Z,100390.86
2023-04-22T22:41:42.416Z,100390.22
2023-04-22T22:44:12.423Z,100389.89
2023-04-22T22:46:40.757Z,100391.69
2023-04-22T22:49:09.310Z,100393.55
2023-04-22T22:51:37.768Z,100396.73
2023-04-22T22:54:05.894Z,100394.26
2023-04-22T22:56:34.009Z,100393.16
2023-04-22T22:59:02.172Z,100393.73
2023-04-22T23:14:49.031Z,100398.54
2023-04-22T23:17:16.627Z,100401.70
2023-04-22T23:19:43.935Z,100397.14
2023-04-22T23:22:11.134Z,100398.45
2023-04-22T23:24:38.399Z,100395.75
2023-04-22T23:27:06.260Z,100398.58
2023-04-22T23:29:33.394Z,100398.75
2023-04-22T23:32:00.664Z,100397.31
2023-04-22T23:34:27.244Z,100396.05
2023-04-22T23:36:53.909Z,100396.75
2023-04-22T23:39:20.571Z,100403.31
2023-04-22T23:41:47.253Z,100400.89
2023-04-22T23:44:13.913Z,100400.45
2023-04-22T23:46:40.814Z,100406.83
2023-04-22T23:49:07.685Z,100404.95
2023-04-22T23:51:34.545Z,100409.81
2023-04-22T23:54:01.388Z,100409.17
2023-04-22T23:56:28.543Z,100407.60
2023-04-22T23:58:55.637Z,100406.53
